Kirzhach, Russia
Current Conditions -  °F | °C
As of 4:30 PM on Wednesday 22 Oct 2014 (Local Time) from UUEE Reporting Station
Broken Clouds Broken Clouds  
Wind Chill:   Ceiling: 1800
Heat Index: 21°   Visibility: 6mi
Dew Point: 14°   Wind: 13mph
Humidity: 74%   Direction: 310°NW
Pressure: 29.97"   Gusts: NA
Location:  56.17°N, 38.87°E
Report Text: UUEE 221330Z 31006MPS 9999 BKN018 M06/M10 Q1015 7541015125410145 NOSIG
Loading
Personal Weather Stations






























Interactive Weather Map
Tropical Storm Tracking
New forecast layout! Learn more

10-Day Weather Forecast

Advertisements
Track Severe Weather on mobile